KPIM/PIM METAR and TAF weather

Enter ICAO airport designator
Station Type Date Time Source
KPIM METAR 2022/01/26 13:15 UTC NOAA

KPIM 261315Z AUTO 01008KT 10SM CLR 00/M05 A3023 RMK AO2 T00001053


Station Type Date Time Source
KPIM Decoded METAR 2022/01/26 13:15 UTC NOAA

Station name not available
Jan 26, 2022 - 08:15 AM EST / 2022.01.26 1315 UTC
Wind: from the N (010 degrees) at 9 MPH (8 KT):0
Visibility: 10 mile(s):0
Sky conditions: clear
Temperature: 32.0 F (0.0 C)
Windchill: 24 F (-4 C):1
Dew Point: 22.5 F (-5.3 C)
Relative Humidity: 67%
Pressure (altimeter): 30.23 in. Hg (1023 hPa)
ob: KPIM 261315Z AUTO 01008KT 10SM CLR 00/M05 A3023 RMK AO2 T00001053
cycle: 13

Station Type Date Time Source
KPIM TAF UTC NOAA

Error!

Example: see airport list